Time;durP1;ratioP1;P1;durP2;ratioP2;P2;SDS_P1;SDS_P2;PMS_P1;PMS_P2;Temp;Humidity;BMP_temperature;BMP_pressure;BME280_temperature;BME280_humidity;BME280_pressure;Samples;Min_cycle;Max_cycle;Signal;HPM_P1;HPM_P2
2023/07/13 00:01:31;;;;;;;1.20;0.65;;;20.00;1.00;;;;;;4953599;29;20027;-79
2023/07/13 00:03:57;;;;;;;3.13;0.68;;;19.90;1.00;;;;;;4951931;29;20473;-79
2023/07/13 00:06:24;;;;;;;2.00;0.50;;;19.90;1.00;;;;;;4955719;29;20039;-78
2023/07/13 00:08:50;;;;;;;2.13;0.73;;;19.70;1.00;;;;;;4936298;29;20391;-82
2023/07/13 00:11:17;;;;;;;2.95;0.70;;;19.50;1.00;;;;;;4953865;29;20039;-78
2023/07/13 00:13:44;;;;;;;1.45;0.38;;;19.40;3.70;;;;;;4955701;29;20039;-78
2023/07/13 00:16:11;;;;;;;1.10;0.70;;;19.30;8.60;;;;;;4957119;29;20035;-78
2023/07/13 00:18:37;;;;;;;2.85;0.88;;;19.30;28.80;;;;;;4938704;29;20043;-79
2023/07/13 00:21:06;;;;;;;1.65;0.70;;;19.20;29.60;;;;;;4953922;29;20541;-79
2023/07/13 00:23:38;;;;;;;0.85;0.35;;;19.00;38.30;;;;;;4954445;29;20043;-79
2023/07/13 00:26:07;;;;;;;2.55;0.75;;;19.00;44.10;;;;;;4949234;29;20054;-79
2023/07/13 00:28:34;;;;;;;8.75;0.63;;;18.90;59.80;;;;;;4952761;29;20410;-79
2023/07/13 00:31:01;;;;;;;2.30;0.60;;;18.90;70.60;;;;;;4950808;29;20039;-78
2023/07/13 00:33:28;;;;;;;1.92;0.40;;;18.80;83.20;;;;;;4936173;29;20047;-79
2023/07/13 00:35:55;;;;;;;9.85;0.88;;;18.70;81.80;;;;;;4935490;29;20047;-79
2023/07/13 00:38:23;;;;;;;2.13;0.68;;;18.70;89.00;;;;;;4948726;29;20059;-79
2023/07/13 00:40:49;;;;;;;6.68;0.90;;;18.70;82.70;;;;;;4950504;29;20031;-79
2023/07/13 00:43:18;;;;;;;2.58;0.80;;;18.70;86.40;;;;;;4951115;29;20950;-80
2023/07/13 00:45:44;;;;;;;1.20;0.47;;;18.70;76.00;;;;;;4920266;29;20050;-79
2023/07/13 00:48:13;;;;;;;2.42;1.23;;;18.70;86.50;;;;;;4935651;29;20043;-79
2023/07/13 00:50:41;;;;;;;2.45;0.65;;;18.60;84.10;;;;;;4934780;29;20046;-79
2023/07/13 00:53:08;;;;;;;3.45;1.10;;;18.50;97.90;;;;;;4951507;29;20043;-78
2023/07/13 00:55:35;;;;;;;3.22;0.80;;;18.40;99.90;;;;;;4952270;29;20043;-79
2023/07/13 00:58:02;;;;;;;3.28;0.80;;;18.40;99.90;;;;;;4953305;29;20043;-79
2023/07/13 01:00:29;;;;;;;2.42;0.80;;;18.30;99.90;;;;;;4933404;29;20043;-78
2023/07/13 01:02:57;;;;;;;1.85;0.60;;;18.20;99.90;;;;;;4950869;29;20031;-80
2023/07/13 01:05:26;;;;;;;5.82;0.88;;;18.10;99.90;;;;;;4953845;29;20447;-78
2023/07/13 01:07:52;;;;;;;1.98;0.93;;;17.90;99.90;;;;;;4934283;29;20039;-78
2023/07/13 01:10:22;;;;;;;2.97;0.95;;;17.70;99.90;;;;;;4936210;29;20047;-80
2023/07/13 01:12:48;;;;;;;3.28;1.33;;;17.70;99.90;;;;;;4948862;29;20028;-79
2023/07/13 01:15:44;;;;;;;1.42;0.73;;;17.60;99.90;;;;;;4951588;29;20378;-78
2023/07/13 01:18:15;;;;;;;1.52;0.85;;;17.50;99.90;;;;;;4952043;29;20055;-79
2023/07/13 01:20:52;;;;;;;3.00;0.70;;;17.40;99.90;;;;;;4952583;29;20043;-79
2023/07/13 01:23:19;;;;;;;3.50;1.00;;;17.40;99.90;;;;;;4951141;29;20043;-80
2023/07/13 01:25:45;;;;;;;4.13;1.42;;;17.30;99.90;;;;;;4948703;29;20059;-78
2023/07/13 01:28:12;;;;;;;3.70;1.15;;;17.10;99.90;;;;;;4954535;29;20043;-78
2023/07/13 01:30:40;;;;;;;5.55;1.15;;;17.10;99.90;;;;;;4934981;29;20054;-78
2023/07/13 01:33:09;;;;;;;3.30;1.30;;;17.10;99.90;;;;;;4948366;29;20039;-78
2023/07/13 01:35:36;;;;;;;1.58;0.80;;;17.10;99.90;;;;;;4952675;29;20035;-78
2023/07/13 01:38:02;;;;;;;3.47;0.98;;;17.00;99.90;;;;;;4951009;29;20039;-79
2023/07/13 01:40:29;;;;;;;4.50;1.38;;;17.10;99.90;;;;;;4934636;29;20039;-77
2023/07/13 01:42:58;;;;;;;2.40;0.90;;;16.90;99.90;;;;;;4933718;29;20455;-79
2023/07/13 01:45:24;;;;;;;2.53;1.05;;;16.60;99.90;;;;;;4952010;29;20035;-78
2023/07/13 01:47:50;;;;;;;3.30;1.00;;;16.50;99.90;;;;;;4952970;29;20101;-78
2023/07/13 01:50:17;;;;;;;4.07;1.58;;;16.40;99.90;;;;;;4934951;29;20048;-79
2023/07/13 01:52:43;;;;;;;2.60;1.35;;;16.40;99.90;;;;;;4950076;29;20037;-79
2023/07/13 01:55:09;;;;;;;2.55;1.27;;;16.30;99.90;;;;;;4951594;29;20398;-79
2023/07/13 01:57:35;;;;;;;4.03;1.00;;;16.30;1.00;;;;;;4952079;29;20036;-79
2023/07/13 02:00:07;;;;;;;6.18;1.42;;;16.30;1.00;;;;;;4935094;29;20039;-79
2023/07/13 02:02:42;;;;;;;2.45;1.10;;;16.30;1.00;;;;;;4958122;28;20054;-77
2023/07/13 02:05:11;;;;;;;4.35;1.40;;;16.30;99.90;;;;;;4934398;29;20046;-78
2023/07/13 02:07:38;;;;;;;4.88;0.85;;;16.10;1.00;;;;;;4952277;29;20043;-78
2023/07/13 02:10:07;;;;;;;2.58;1.02;;;16.00;1.00;;;;;;4951933;29;20035;-78
2023/07/13 02:12:33;;;;;;;2.05;0.93;;;16.00;1.00;;;;;;4926068;29;20040;-79
2023/07/13 02:15:00;;;;;;;1.52;0.85;;;16.00;1.00;;;;;;4951947;29;20054;-78
2023/07/13 02:17:27;;;;;;;2.85;0.95;;;15.80;1.00;;;;;;4949018;28;20070;-77
2023/07/13 02:19:54;;;;;;;2.80;1.00;;;15.80;1.00;;;;;;4939447;29;20043;-78
2023/07/13 02:22:21;;;;;;;4.50;1.10;;;15.80;1.00;;;;;;4922398;29;20043;-79
2023/07/13 02:24:47;;;;;;;5.72;1.25;;;15.70;1.00;;;;;;4958450;29;20050;-79
2023/07/13 02:27:13;;;;;;;2.15;0.90;;;15.70;1.00;;;;;;4958714;28;20286;-77
2023/07/13 02:29:40;;;;;;;1.75;0.98;;;15.70;1.00;;;;;;4938428;29;20070;-78
2023/07/13 02:32:07;;;;;;;4.57;1.38;;;15.80;1.00;;;;;;4957237;28;20046;-78
2023/07/13 02:34:34;;;;;;;1.13;0.77;;;15.80;99.90;;;;;;4959054;28;20032;-78
2023/07/13 02:37:00;;;;;;;2.60;0.80;;;15.90;99.90;;;;;;4956897;29;20031;-79
2023/07/13 02:39:26;;;;;;;1.92;1.00;;;15.90;99.90;;;;;;4957935;28;20027;-79
2023/07/13 02:41:52;;;;;;;7.28;1.25;;;16.00;99.90;;;;;;4955875;28;20078;-78
2023/07/13 02:44:18;;;;;;;2.67;0.98;;;15.90;99.90;;;;;;4956348;29;20039;-78
2023/07/13 02:46:44;;;;;;;4.10;0.93;;;15.90;99.90;;;;;;4959520;28;20477;-78
2023/07/13 02:49:10;;;;;;;3.25;1.05;;;15.90;99.90;;;;;;4958585;29;20386;-79
2023/07/13 02:51:37;;;;;;;1.88;1.15;;;15.90;99.90;;;;;;4956782;28;20115;-77
2023/07/13 02:54:04;;;;;;;2.30;1.52;;;15.90;99.90;;;;;;4941069;29;20051;-78
2023/07/13 02:56:32;;;;;;;3.17;0.88;;;15.90;99.90;;;;;;4957669;29;20382;-77
2023/07/13 02:58:59;;;;;;;4.55;1.85;;;15.90;1.00;;;;;;4938460;28;20075;-78
2023/07/13 03:01:26;;;;;;;2.95;0.85;;;15.70;1.00;;;;;;4924634;28;20039;-77
2023/07/13 03:03:53;;;;;;;3.33;1.33;;;15.60;1.00;;;;;;4941135;29;20455;-77
2023/07/13 03:06:21;;;;;;;2.58;1.38;;;15.50;1.00;;;;;;4940684;29;20500;-78
2023/07/13 03:08:50;;;;;;;4.82;1.35;;;15.20;1.00;;;;;;4939496;29;20048;-77
2023/07/13 03:11:19;;;;;;;1.85;1.20;;;15.10;1.00;;;;;;4944371;28;20047;-78
2023/07/13 03:13:49;;;;;;;2.95;1.30;;;15.10;1.00;;;;;;4941497;29;20477;-77
2023/07/13 03:16:16;;;;;;;1.73;0.98;;;15.00;1.00;;;;;;4941395;29;20054;-78
2023/07/13 03:18:46;;;;;;;3.22;1.33;;;14.90;1.00;;;;;;4940871;29;20039;-78
2023/07/13 03:21:12;;;;;;;4.95;1.70;;;14.90;1.00;;;;;;4939722;28;20066;-78
2023/07/13 03:23:40;;;;;;;3.13;1.15;;;14.90;1.00;;;;;;4941612;29;20050;-78
2023/07/13 03:26:13;;;;;;;3.70;1.50;;;14.80;1.00;;;;;;4938155;28;20054;-79
2023/07/13 03:28:41;;;;;;;2.55;1.23;;;14.70;1.00;;;;;;4941489;29;20047;-78
2023/07/13 03:31:13;;;;;;;3.75;1.40;;;14.60;6.60;;;;;;4935763;29;20486;-77
2023/07/13 03:33:41;;;;;;;2.88;1.75;;;14.60;15.20;;;;;;4921357;29;20044;-77
2023/07/13 03:36:12;;;;;;;2.50;1.63;;;14.60;13.00;;;;;;4925456;29;20050;-78
2023/07/13 03:38:38;;;;;;;3.92;1.30;;;14.60;17.30;;;;;;4933527;29;20046;-79
2023/07/13 03:41:04;;;;;;;5.45;1.00;;;14.70;15.70;;;;;;4947021;29;20047;-80
2023/07/13 03:43:31;;;;;;;3.72;1.17;;;14.70;12.00;;;;;;4927945;29;20047;-79
2023/07/13 03:45:58;;;;;;;2.42;1.02;;;14.60;19.30;;;;;;4951684;29;20035;-79
2023/07/13 03:48:24;;;;;;;1.73;1.55;;;14.60;29.80;;;;;;4952178;29;20258;-76
2023/07/13 03:50:50;;;;;;;4.93;1.95;;;14.70;42.50;;;;;;4955046;29;20046;-77
2023/07/13 03:53:16;;;;;;;4.43;1.70;;;14.80;26.50;;;;;;4949747;29;20035;-79
2023/07/13 03:55:44;;;;;;;3.22;1.30;;;14.60;5.90;;;;;;4953343;29;20066;-78
2023/07/13 03:58:31;;;;;;;2.97;1.60;;;14.40;10.40;;;;;;4949970;29;20051;-78
2023/07/13 04:01:05;;;;;;;6.63;2.35;;;14.30;23.90;;;;;;4936604;29;20058;-80
2023/07/13 04:03:32;;;;;;;3.75;1.70;;;14.20;45.40;;;;;;4935474;29;20038;-79
2023/07/13 04:06:03;;;;;;;3.80;2.38;;;14.20;55.50;;;;;;4949909;29;20043;-80
2023/07/13 04:08:32;;;;;;;2.35;1.85;;;14.10;68.60;;;;;;4935585;29;20039;-78
2023/07/13 04:11:00;;;;;;;3.60;2.08;;;14.00;83.20;;;;;;4933776;29;20039;-79
2023/07/13 04:13:27;;;;;;;4.45;2.17;;;14.00;81.60;;;;;;4952631;29;20035;-78
2023/07/13 04:15:54;;;;;;;5.63;1.50;;;14.20;97.40;;;;;;4934539;29;20035;-79
2023/07/13 04:18:21;;;;;;;4.38;1.75;;;14.30;85.90;;;;;;4952726;29;20031;-78
2023/07/13 04:20:49;;;;;;;3.10;2.03;;;14.50;62.70;;;;;;4952662;29;20035;-79
2023/07/13 04:23:19;;;;;;;2.85;2.13;;;14.80;29.60;;;;;;4950766;29;20039;-79
2023/07/13 04:25:46;;;;;;;5.07;1.50;;;14.90;20.90;;;;;;4932822;29;20067;-79
2023/07/13 04:28:12;;;;;;;3.75;1.77;;;15.20;1.00;;;;;;4935966;29;20062;-79
2023/07/13 04:30:38;;;;;;;4.95;1.60;;;15.60;1.00;;;;;;4951297;29;20043;-79
2023/07/13 04:33:05;;;;;;;4.07;0.95;;;16.60;1.00;;;;;;4952151;29;20035;-80
2023/07/13 04:35:31;;;;;;;3.28;1.20;;;17.20;99.90;;;;;;4925110;29;20039;-77
2023/07/13 04:37:57;;;;;;;3.42;1.25;;;16.90;99.90;;;;;;4951276;29;20042;-78
2023/07/13 04:40:23;;;;;;;4.05;1.38;;;17.00;99.90;;;;;;4953049;29;20038;-79
2023/07/13 04:42:50;;;;;;;3.60;1.17;;;17.40;99.90;;;;;;4948329;29;20057;-79
2023/07/13 04:45:17;;;;;;;5.05;1.30;;;17.80;99.90;;;;;;4931266;29;20047;-79
2023/07/13 04:47:43;;;;;;;4.55;1.85;;;18.00;99.90;;;;;;4952583;29;20039;-79
2023/07/13 04:50:12;;;;;;;3.58;2.05;;;17.70;99.90;;;;;;4936077;29;20038;-78
2023/07/13 04:52:38;;;;;;;2.25;1.33;;;17.10;99.90;;;;;;4951057;29;20390;-79
2023/07/13 04:55:05;;;;;;;3.25;1.40;;;16.50;1.00;;;;;;4950951;29;20187;-79
2023/07/13 04:57:31;;;;;;;3.20;1.40;;;16.20;1.00;;;;;;4951922;29;20036;-78
2023/07/13 05:00:00;;;;;;;3.83;1.42;;;15.80;1.00;;;;;;4954373;29;20042;-77
2023/07/13 05:02:28;;;;;;;3.10;2.10;;;15.40;1.00;;;;;;4951635;29;20065;-78
2023/07/13 05:04:54;;;;;;;3.47;1.80;;;15.30;1.00;;;;;;4938373;29;20046;-76
2023/07/13 05:07:22;;;;;;;4.72;1.50;;;15.20;1.00;;;;;;4936133;29;20532;-76
2023/07/13 05:09:48;;;;;;;4.95;2.38;;;15.30;1.00;;;;;;4953481;29;20083;-77
2023/07/13 05:12:14;;;;;;;2.05;1.00;;;15.80;1.00;;;;;;4951412;29;20335;-77
2023/07/13 05:14:40;;;;;;;2.20;1.30;;;16.60;1.00;;;;;;4951203;29;20489;-78
2023/07/13 05:17:06;;;;;;;3.47;1.38;;;17.20;1.00;;;;;;4950636;29;20031;-78
2023/07/13 05:19:32;;;;;;;2.67;1.52;;;17.50;99.90;;;;;;4952862;29;20050;-77
2023/07/13 05:21:58;;;;;;;4.43;1.52;;;17.70;99.90;;;;;;4952999;29;20046;-77
2023/07/13 05:24:24;;;;;;;4.05;1.38;;;17.90;99.90;;;;;;4949474;29;20027;-78
2023/07/13 05:26:51;;;;;;;4.13;1.95;;;17.90;99.90;;;;;;4950336;29;20051;-77
2023/07/13 05:29:17;;;;;;;2.17;1.00;;;17.90;99.90;;;;;;4935159;29;20046;-78
2023/07/13 05:31:43;;;;;;;4.93;1.60;;;17.90;99.90;;;;;;4953011;29;20387;-78
2023/07/13 05:34:09;;;;;;;3.72;1.50;;;17.70;99.90;;;;;;4951285;29;20039;-77
2023/07/13 05:36:35;;;;;;;4.28;1.65;;;17.90;99.90;;;;;;4951148;29;20047;-76
2023/07/13 05:39:05;;;;;;;8.15;1.10;;;18.30;99.90;;;;;;4952000;29;20031;-77
2023/07/13 05:41:31;;;;;;;;;;;18.50;99.90;;;;;;4949956;29;20054;-77
2023/07/13 05:43:57;;;;;;;3.65;1.35;;;19.00;99.90;;;;;;4951640;29;19910;-76
2023/07/13 05:46:24;;;;;;;2.75;1.30;;;19.20;99.90;;;;;;4952132;29;20050;-76
2023/07/13 05:48:50;;;;;;;1.98;1.13;;;19.30;99.90;;;;;;4952110;29;20038;-78
2023/07/13 05:51:16;;;;;;;8.80;1.58;;;19.40;99.90;;;;;;4931602;29;20360;-77
2023/07/13 05:53:42;;;;;;;4.05;1.35;;;20.30;99.90;;;;;;4949407;28;20734;-77
2023/07/13 05:56:09;;;;;;;3.72;1.10;;;21.00;35.60;;;;;;4950139;29;20038;-78
2023/07/13 05:58:35;;;;;;;2.20;1.15;;;20.40;48.30;;;;;;4950818;29;20050;-76
2023/07/13 06:01:04;;;;;;;12.45;2.40;;;20.30;13.40;;;;;;4952970;29;20042;-76
2023/07/13 06:03:31;;;;;;;4.10;0.93;;;20.00;45.20;;;;;;4947694;29;20047;-78
2023/07/13 06:05:57;;;;;;;2.47;1.00;;;19.70;59.40;;;;;;4948021;29;20044;-75
2023/07/13 06:08:23;;;;;;;1.52;0.98;;;19.90;33.80;;;;;;4949774;29;20399;-76
2023/07/13 06:10:49;;;;;;;3.20;1.00;;;20.40;15.40;;;;;;4933951;29;20032;-78
2023/07/13 06:13:15;;;;;;;1.88;0.90;;;20.80;21.50;;;;;;4947927;29;20039;-78
2023/07/13 06:15:42;;;;;;;2.25;1.35;;;21.20;1.00;;;;;;4950695;29;20047;-78
2023/07/13 06:18:08;;;;;;;5.65;1.17;;;21.60;1.00;;;;;;4952556;29;20035;-78
2023/07/13 06:20:34;;;;;;;3.88;1.08;;;21.60;1.00;;;;;;4951690;29;20034;-78
2023/07/13 06:23:01;;;;;;;3.30;1.35;;;21.10;1.00;;;;;;4950109;29;20039;-79
2023/07/13 06:25:27;;;;;;;2.95;1.20;;;21.10;1.00;;;;;;4951372;29;20035;-77
2023/07/13 06:27:54;;;;;;;2.85;1.10;;;21.50;1.00;;;;;;4951581;29;20414;-78
2023/07/13 06:30:20;;;;;;;4.32;1.10;;;21.40;1.00;;;;;;4950569;29;20039;-78
2023/07/13 06:32:46;;;;;;;3.13;0.70;;;20.70;1.00;;;;;;4951675;29;20039;-77
2023/07/13 06:35:13;;;;;;;3.47;1.05;;;21.10;12.80;;;;;;4937354;29;20043;-79
2023/07/13 06:37:39;;;;;;;3.17;1.00;;;21.10;1.00;;;;;;4951998;29;20470;-78
2023/07/13 06:40:06;;;;;;;4.70;1.27;;;20.80;1.00;;;;;;4950793;29;20043;-79
2023/07/13 06:42:32;;;;;;;2.55;0.60;;;21.20;1.00;;;;;;4952583;29;20479;-78
2023/07/13 06:44:58;;;;;;;3.13;0.80;;;21.90;1.00;;;;;;4949773;29;20371;-78
2023/07/13 06:47:24;;;;;;;4.53;1.17;;;22.10;1.00;;;;;;4952388;29;20050;-79
2023/07/13 06:49:50;;;;;;;2.75;0.88;;;22.00;1.00;;;;;;4929973;29;20047;-79
2023/07/13 06:52:16;;;;;;;4.18;0.68;;;22.10;99.90;;;;;;4949123;29;20042;-80
2023/07/13 06:54:43;;;;;;;3.65;0.52;;;22.20;99.90;;;;;;4948250;29;20043;-79
2023/07/13 06:57:09;;;;;;;1.55;0.40;;;22.10;99.90;;;;;;4950391;29;20390;-79
2023/07/13 06:59:35;;;;;;;2.10;0.93;;;22.80;99.90;;;;;;4948590;29;20039;-79
2023/07/13 07:02:02;;;;;;;2.38;0.50;;;23.20;99.90;;;;;;4949441;29;20043;-78
2023/07/13 07:04:28;;;;;;;2.63;0.95;;;23.10;99.90;;;;;;4945090;29;20030;-82
2023/07/13 07:06:54;;;;;;;0.85;0.35;;;22.70;99.90;;;;;;4933928;29;20495;-79
2023/07/13 07:09:20;;;;;;;1.98;0.57;;;22.60;99.90;;;;;;4949227;29;20054;-79
2023/07/13 07:11:46;;;;;;;3.22;0.60;;;22.50;99.90;;;;;;4952530;29;20505;-78
2023/07/13 07:14:12;;;;;;;7.38;0.90;;;22.30;99.90;;;;;;4953389;29;20406;-80
2023/07/13 07:16:39;;;;;;;2.95;0.82;;;22.30;99.90;;;;;;4953589;29;20467;-78
2023/07/13 07:19:05;;;;;;;1.02;0.60;;;22.30;99.90;;;;;;4953403;29;20023;-78
2023/07/13 07:21:31;;;;;;;4.57;0.50;;;23.20;99.90;;;;;;4935955;29;20035;-78
2023/07/13 07:23:59;;;;;;;1.38;0.50;;;22.90;99.90;;;;;;4954456;29;20031;-78
2023/07/13 07:26:26;;;;;;;4.22;1.17;;;22.60;99.90;;;;;;4952354;29;20047;-78
2023/07/13 07:28:52;;;;;;;4.32;0.65;;;22.60;99.90;;;;;;4954539;29;20040;-76
2023/07/13 07:31:18;;;;;;;2.50;0.80;;;22.40;99.90;;;;;;4951894;29;20039;-77
2023/07/13 07:33:44;;;;;;;3.45;1.00;;;22.30;99.90;;;;;;4939603;29;20039;-77
2023/07/13 07:36:11;;;;;;;2.70;0.80;;;22.40;99.90;;;;;;4955586;29;20505;-78
2023/07/13 07:38:37;;;;;;;3.50;0.85;;;22.70;99.90;;;;;;4954611;29;20042;-76
2023/07/13 07:41:04;;;;;;;2.13;0.90;;;22.50;99.90;;;;;;4938586;29;20106;-77
2023/07/13 07:43:31;;;;;;;2.05;0.68;;;23.20;99.90;;;;;;4953871;29;20035;-76
2023/07/13 07:45:57;;;;;;;2.40;0.80;;;23.00;99.90;;;;;;4953474;29;20043;-76
2023/07/13 07:48:24;;;;;;;1.98;1.05;;;23.00;99.90;;;;;;4953242;29;20035;-76
2023/07/13 07:50:50;;;;;;;5.05;0.95;;;22.70;99.90;;;;;;4954873;29;20027;-77
2023/07/13 07:53:16;;;;;;;8.35;2.05;;;22.70;99.90;;;;;;4953300;29;20480;-78
2023/07/13 07:55:42;;;;;;;2.90;0.90;;;23.10;99.90;;;;;;4952883;29;20050;-76
2023/07/13 07:58:10;;;;;;;3.28;1.23;;;24.10;99.90;;;;;;4954413;29;20046;-81
2023/07/13 08:00:36;;;;;;;4.38;1.20;;;24.50;99.90;;;;;;4953434;29;20039;-77
2023/07/13 08:03:03;;;;;;;2.78;1.40;;;25.30;99.90;;;;;;4954005;29;20027;-77
2023/07/13 08:05:29;;;;;;;5.82;0.82;;;24.80;99.90;;;;;;4934628;29;20032;-78
2023/07/13 08:07:55;;;;;;;5.05;1.35;;;24.10;99.90;;;;;;4953794;29;20058;-78
2023/07/13 08:10:21;;;;;;;3.17;1.38;;;24.50;99.90;;;;;;4952723;29;20039;-77
2023/07/13 08:12:47;;;;;;;3.70;0.88;;;23.90;99.90;;;;;;4952957;29;20032;-80
2023/07/13 08:15:15;;;;;;;3.30;0.80;;;24.30;99.90;;;;;;4950973;28;20043;-78
2023/07/13 08:17:42;;;;;;;1.98;0.68;;;24.50;99.90;;;;;;4952176;29;20039;-78
2023/07/13 08:20:09;;;;;;;3.00;0.73;;;25.10;99.90;;;;;;4953151;29;20036;-78
2023/07/13 08:22:36;;;;;;;6.65;1.23;;;25.10;99.90;;;;;;4950012;29;20485;-77
2023/07/13 08:25:02;;;;;;;3.47;1.20;;;24.70;99.90;;;;;;4951689;29;20509;-78
2023/07/13 08:27:29;;;;;;;2.85;0.60;;;24.50;99.90;;;;;;4949414;29;20052;-78
2023/07/13 08:29:55;;;;;;;3.53;1.13;;;24.90;99.90;;;;;;4936846;29;20066;-77
2023/07/13 08:32:23;;;;;;;5.57;1.10;;;25.40;99.90;;;;;;4953657;29;20027;-77
2023/07/13 08:34:49;;;;;;;3.38;1.05;;;24.70;99.90;;;;;;4952409;29;20058;-77
2023/07/13 08:37:16;;;;;;;2.13;0.73;;;24.60;99.90;;;;;;4952023;29;20043;-78
2023/07/13 08:39:43;;;;;;;5.20;1.00;;;24.60;99.90;;;;;;4955485;29;20040;-77
2023/07/13 08:42:15;;;;;;;1.73;0.63;;;24.90;99.90;;;;;;4953603;29;20046;-78
2023/07/13 08:45:05;;;;;;;1.23;0.70;;;25.00;99.90;;;;;;4951816;29;20039;-78
2023/07/13 08:47:38;;;;;;;6.15;0.77;;;25.50;99.90;;;;;;4951819;29;20038;-78
2023/07/13 08:50:04;;;;;;;2.85;0.60;;;25.60;99.90;;;;;;4954068;29;20042;-76
2023/07/13 08:52:35;;;;;;;2.85;0.98;;;24.70;99.90;;;;;;4952956;29;20031;-77
2023/07/13 08:55:12;;;;;;;6.60;1.52;;;23.60;99.90;;;;;;4949569;29;20501;-78
2023/07/13 08:57:41;;;;;;;2.67;0.52;;;23.60;99.90;;;;;;4935955;29;20051;-79
2023/07/13 09:00:12;;;;;;;1.77;0.90;;;23.60;99.90;;;;;;4951279;29;20039;-78
2023/07/13 09:02:49;;;;;;;2.47;0.80;;;23.60;99.90;;;;;;4952249;29;20038;-75
2023/07/13 09:05:38;;;;;;;2.28;0.80;;;24.20;99.90;;;;;;4949360;29;20058;-78
2023/07/13 09:08:46;;;;;;;3.00;1.13;;;24.70;99.90;;;;;;4952092;29;20394;-78
2023/07/13 09:11:26;;;;;;;2.20;0.70;;;25.00;99.90;;;;;;4951872;29;20035;-80
2023/07/13 09:14:18;;;;;;;1.95;0.77;;;24.90;99.90;;;;;;4949574;29;20035;-77
2023/07/13 09:16:46;;;;;;;1.55;0.60;;;25.60;99.90;;;;;;4933311;29;20047;-78
2023/07/13 09:19:22;;;;;;;2.13;0.60;;;26.60;99.90;;;;;;4951150;29;20035;-80
2023/07/13 09:21:50;;;;;;;2.40;0.75;;;26.80;99.90;;;;;;4950899;29;20035;-78
2023/07/13 09:24:35;;;;;;;2.60;0.63;;;26.10;99.90;;;;;;4950137;29;20035;-78
2023/07/13 09:27:03;;;;;;;4.50;1.13;;;25.80;99.90;;;;;;4950275;28;20390;-79
2023/07/13 09:29:34;;;;;;;2.53;0.50;;;24.90;99.90;;;;;;4951031;29;20040;-78
2023/07/13 09:32:07;;;;;;;1.10;0.50;;;25.30;99.90;;;;;;4953351;29;20035;-77
2023/07/13 09:34:34;;;;;;;2.13;0.57;;;26.00;99.90;;;;;;4932990;29;20074;-76
2023/07/13 09:37:00;;;;;;;1.45;0.60;;;26.40;99.90;;;;;;4950566;29;20035;-76
2023/07/13 09:39:56;;;;;;;3.63;1.15;;;26.10;99.90;;;;;;4933319;29;20054;-77
2023/07/13 09:42:22;;;;;;;2.40;0.80;;;25.50;99.90;;;;;;4940380;29;20054;-78
2023/07/13 09:44:59;;;;;;;2.67;0.70;;;25.50;99.90;;;;;;4947534;29;20050;-76
2023/07/13 09:47:29;;;;;;;4.65;0.95;;;25.40;99.90;;;;;;4953505;29;20046;-76
2023/07/13 09:50:01;;;;;;;4.38;1.30;;;25.20;99.90;;;;;;4952255;29;20387;-76
2023/07/13 09:52:38;;;;;;;2.13;1.00;;;24.90;99.90;;;;;;4948329;29;20039;-76
2023/07/13 09:55:34;;;;;;;1.88;0.65;;;24.40;99.90;;;;;;4946391;29;20042;-77
2023/07/13 09:58:13;;;;;;;5.35;0.70;;;24.20;99.90;;;;;;4950502;29;20042;-77
2023/07/13 10:00:40;;;;;;;4.43;0.70;;;24.00;99.90;;;;;;4950162;29;20039;-77
2023/07/13 10:03:20;;;;;;;3.60;0.65;;;24.50;99.90;;;;;;4951475;29;20046;-76
2023/07/13 10:05:47;;;;;;;1.48;0.50;;;24.70;99.90;;;;;;4951337;29;20043;-80
2023/07/13 10:08:30;;;;;;;4.78;0.75;;;24.60;99.90;;;;;;4949967;29;20058;-78
2023/07/13 10:11:27;;;;;;;3.33;0.85;;;23.90;99.90;;;;;;4950582;29;20490;-77
2023/07/13 10:13:59;;;;;;;2.63;1.00;;;23.90;99.90;;;;;;4948366;29;20054;-77
2023/07/13 10:16:32;;;;;;;1.58;0.63;;;24.00;99.90;;;;;;4950661;29;20402;-78
2023/07/13 10:19:15;;;;;;;1.23;0.50;;;23.90;99.90;;;;;;4949724;29;20039;-78
2023/07/13 10:21:48;;;;;;;3.42;0.82;;;24.10;99.90;;;;;;4952401;29;20039;-77
2023/07/13 10:24:21;;;;;;;1.00;0.40;;;24.10;99.90;;;;;;4931889;29;20035;-77
2023/07/13 10:27:11;;;;;;;1.83;0.70;;;24.10;99.90;;;;;;4952278;29;20054;-78
2023/07/13 10:29:43;;;;;;;2.47;0.77;;;24.20;99.90;;;;;;4947554;29;20052;-78
2023/07/13 10:32:13;;;;;;;2.05;0.60;;;24.50;99.90;;;;;;4950079;29;20427;-79
2023/07/13 10:34:45;;;;;;;2.05;0.70;;;24.40;99.90;;;;;;4950747;29;20343;-78
2023/07/13 10:37:20;;;;;;;1.95;0.50;;;24.60;99.90;;;;;;4951573;29;20467;-78
2023/07/13 10:39:47;;;;;;;3.30;0.82;;;24.90;99.90;;;;;;4952299;29;20045;-79
2023/07/13 10:42:32;;;;;;;3.67;0.70;;;24.70;99.90;;;;;;4954459;29;20422;-78
2023/07/13 10:44:58;;;;;;;3.72;0.95;;;24.70;99.90;;;;;;4955482;29;20031;-79
2023/07/13 10:47:25;;;;;;;1.35;0.65;;;25.20;99.90;;;;;;4953523;29;20035;-78
2023/07/13 10:49:55;;;;;;;3.83;0.70;;;25.50;99.90;;;;;;4952914;29;20046;-79
2023/07/13 10:52:40;;;;;;;4.07;1.08;;;25.40;99.90;;;;;;4951847;29;20039;-79
2023/07/13 10:55:33;;;;;;;1.20;0.45;;;25.50;99.90;;;;;;4949991;29;20043;-77
2023/07/13 10:58:11;;;;;;;4.22;0.93;;;25.40;99.90;;;;;;4955160;29;20050;-76
2023/07/13 11:00:47;;;;;;;3.45;0.95;;;25.20;99.90;;;;;;4953276;29;20039;-78
2023/07/13 11:03:17;;;;;;;2.00;0.45;;;24.80;99.90;;;;;;4948984;29;20134;-81
2023/07/13 11:05:47;;;;;;;1.30;0.50;;;24.60;99.90;;;;;;4956268;29;20047;-78
2023/07/13 11:08:32;;;;;;;1.90;0.70;;;24.60;99.90;;;;;;4953024;29;20034;-78
2023/07/13 11:10:59;;;;;;;2.35;0.43;;;24.50;99.90;;;;;;4954547;29;20046;-78
2023/07/13 11:13:45;;;;;;;2.03;0.70;;;24.40;99.90;;;;;;4953953;29;20031;-78
2023/07/13 11:16:17;;;;;;;2.00;0.60;;;24.90;99.90;;;;;;4938772;29;20047;-76
2023/07/13 11:19:02;;;;;;;3.03;0.65;;;25.00;99.90;;;;;;4953578;29;20058;-78
2023/07/13 11:21:30;;;;;;;2.72;0.93;;;24.70;99.90;;;;;;4952011;29;20463;-78
2023/07/13 11:24:13;;;;;;;1.58;0.55;;;25.10;99.90;;;;;;4954665;29;20386;-78
2023/07/13 11:26:39;;;;;;;5.63;1.00;;;25.40;99.90;;;;;;4952028;29;20231;-78
2023/07/13 11:29:28;;;;;;;2.30;0.52;;;25.70;99.90;;;;;;4955182;29;20043;-77
2023/07/13 11:31:57;;;;;;;3.00;0.75;;;25.70;99.90;;;;;;4953763;29;20031;-79
2023/07/13 11:34:38;;;;;;;0.65;0.50;;;26.00;99.90;;;;;;4951147;29;20043;-80
2023/07/13 11:37:11;;;;;;;2.22;0.68;;;25.80;99.90;;;;;;4953079;29;20043;-79
2023/07/13 11:39:44;;;;;;;2.38;0.60;;;25.50;99.90;;;;;;4934897;29;20035;-78
2023/07/13 11:42:15;;;;;;;1.73;0.60;;;25.50;99.90;;;;;;4955337;29;20046;-79
2023/07/13 11:44:47;;;;;;;1.33;0.75;;;25.70;99.90;;;;;;4935662;29;20043;-79
2023/07/13 11:47:22;;;;;;;2.03;0.68;;;25.70;99.90;;;;;;4953842;29;20043;-79
2023/07/13 11:49:59;;;;;;;2.13;1.05;;;25.60;99.90;;;;;;4952879;29;20410;-78
2023/07/13 11:52:37;;;;;;;1.67;0.90;;;25.10;99.90;;;;;;4951628;29;20047;-81
2023/07/13 11:55:17;;;;;;;0.93;0.50;;;25.10;99.90;;;;;;4954550;29;20038;-79
2023/07/13 11:57:53;;;;;;;2.00;0.88;;;25.50;99.90;;;;;;4950637;29;20027;-78
2023/07/13 12:00:27;;;;;;;6.78;1.00;;;25.60;99.90;;;;;;4955069;29;20031;-79
2023/07/13 12:02:59;;;;;;;1.60;0.70;;;25.50;99.90;;;;;;4950758;29;20035;-79
2023/07/13 12:05:25;;;;;;;3.28;0.80;;;25.30;99.90;;;;;;4951261;29;20055;-77
2023/07/13 12:07:52;;;;;;;1.58;0.52;;;25.00;99.90;;;;;;4955510;29;20058;-79
2023/07/13 12:10:20;;;;;;;8.23;1.05;;;24.90;99.90;;;;;;4952929;29;20045;-80
2023/07/13 12:12:57;;;;;;;0.82;0.50;;;24.90;99.90;;;;;;4952003;29;20119;-79
2023/07/13 12:15:35;;;;;;;4.68;0.77;;;25.10;99.90;;;;;;4956036;29;20043;-78
2023/07/13 12:18:01;;;;;;;0.70;0.30;;;25.00;99.90;;;;;;4954473;29;20028;-78
2023/07/13 12:20:38;;;;;;;1.70;0.60;;;25.10;99.90;;;;;;4952800;29;20035;-78
2023/07/13 12:23:28;;;;;;;9.95;1.20;;;25.20;99.90;;;;;;4955604;29;20051;-78
2023/07/13 12:25:54;;;;;;;5.60;1.27;;;25.60;99.90;;;;;;4952905;29;20055;-78
2023/07/13 12:28:29;;;;;;;5.35;1.13;;;25.70;99.90;;;;;;4935498;29;20051;-78
2023/07/13 12:31:01;;;;;;;5.40;2.10;;;25.50;99.90;;;;;;4953276;29;20036;-78
2023/07/13 12:33:32;;;;;;;3.75;1.38;;;25.20;99.90;;;;;;4951788;29;20054;-78
2023/07/13 12:36:05;;;;;;;5.03;1.40;;;25.40;99.90;;;;;;4953489;29;20043;-80
2023/07/13 12:38:32;;;;;;;6.10;1.20;;;25.80;99.90;;;;;;4952494;29;20046;-78
2023/07/13 12:41:01;;;;;;;13.00;1.45;;;25.70;99.90;;;;;;4952700;29;20038;-79
2023/07/13 12:43:37;;;;;;;3.63;0.80;;;25.40;99.90;;;;;;4949962;29;20690;-78
2023/07/13 12:46:19;;;;;;;2.30;0.70;;;25.70;99.90;;;;;;4953541;29;20473;-79
2023/07/13 12:48:51;;;;;;;3.40;0.90;;;26.40;99.90;;;;;;4950440;29;20050;-78
2023/07/13 12:51:22;;;;;;;6.70;0.73;;;27.30;99.90;;;;;;4949046;29;20039;-78
2023/07/13 12:53:54;;;;;;;3.22;0.60;;;27.60;99.90;;;;;;4948516;29;20402;-79
2023/07/13 12:56:27;;;;;;;2.95;0.68;;;27.20;99.90;;;;;;4947272;29;20040;-79
2023/07/13 12:58:59;;;;;;;1.30;0.65;;;26.70;99.90;;;;;;4947099;29;20471;-79
2023/07/13 13:01:32;;;;;;;1.88;0.70;;;26.50;99.90;;;;;;4951893;29;20410;-80